createdAt,value
2017-11-24T00:00:26.979Z,8.68
2017-11-24T00:02:56.607Z,10.02
2017-11-24T00:05:27.048Z,11.43
2017-11-24T00:07:56.712Z,7.05
2017-11-24T00:10:26.391Z,6.22
2017-11-24T00:12:56.039Z,6.65
2017-11-24T00:15:25.979Z,7.47
2017-11-24T00:17:56.206Z,6.87
2017-11-24T00:20:25.691Z,7.43
2017-11-24T00:22:55.248Z,10.25
2017-11-24T00:25:24.909Z,7.53
2017-11-24T00:27:54.627Z,5.57
2017-11-24T00:30:24.865Z,6.32
2017-11-24T00:32:54.503Z,6.18
2017-11-24T00:35:24.219Z,7.35
2017-11-24T00:37:53.867Z,7.80
2017-11-24T00:40:23.536Z,6.03
2017-11-24T00:42:53.215Z,9.25
2017-11-24T00:45:22.854Z,6.28
2017-11-24T00:47:52.537Z,10.18
2017-11-24T00:50:22.932Z,5.70
2017-11-24T00:52:52.631Z,7.20
2017-11-24T00:55:22.301Z,7.40
2017-11-24T00:57:51.958Z,8.75
2017-11-24T01:00:21.785Z,7.20
2017-11-24T01:02:51.295Z,9.13
2017-11-24T01:05:21.694Z,11.50
2017-11-24T01:07:51.163Z,8.00
2017-11-24T01:10:20.798Z,6.07
2017-11-24T01:12:50.459Z,8.55
2017-11-24T01:15:19.431Z,7.80
2017-11-24T01:17:49.687Z,6.82
2017-11-24T01:20:19.327Z,6.00
2017-11-24T01:22:49.113Z,8.63
2017-11-24T01:25:18.806Z,5.32
2017-11-24T01:27:48.744Z,7.25
2017-11-24T01:30:18.406Z,7.05
2017-11-24T01:32:48.854Z,6.15
2017-11-24T01:35:18.505Z,6.43
2017-11-24T01:37:48.256Z,6.12
2017-11-24T01:40:18.468Z,7.40
2017-11-24T01:42:48.188Z,5.05
2017-11-24T01:45:17.815Z,8.60
2017-11-24T01:47:48.553Z,8.07
2017-11-24T01:50:18.447Z,9.68
2017-11-24T01:52:48.188Z,9.10
2017-11-24T01:55:18.018Z,6.20
2017-11-24T01:57:47.851Z,6.82
2017-11-24T02:00:16.840Z,5.97
2017-11-24T02:02:45.663Z,6.95
2017-11-24T02:05:17.843Z,7.30
2017-11-24T02:07:49.067Z,6.50
2017-11-24T02:10:18.719Z,10.05
2017-11-24T02:12:48.379Z,6.10
2017-11-24T02:15:18.057Z,6.00
2017-11-24T02:17:47.723Z,7.20
2017-11-24T02:20:16.681Z,8.68
2017-11-24T02:22:45.810Z,6.70
2017-11-24T02:25:15.544Z,8.55
2017-11-24T02:27:44.901Z,7.68
2017-11-24T02:30:13.871Z,7.45
2017-11-24T02:32:42.875Z,8.73
2017-11-24T02:35:11.900Z,6.35
2017-11-24T02:37:40.878Z,7.00
2017-11-24T02:40:09.844Z,8.40
2017-11-24T02:42:39.510Z,7.00
2017-11-24T02:45:09.251Z,6.97
2017-11-24T02:47:38.564Z,6.28
2017-11-24T02:50:07.394Z,9.43
2017-11-24T02:52:36.929Z,7.80
2017-11-24T02:55:05.949Z,7.75
2017-11-24T02:57:34.927Z,9.30
2017-11-24T03:00:04.223Z,7.43
2017-11-24T03:02:33.745Z,7.55
2017-11-24T03:05:03.182Z,9.80
2017-11-24T03:07:32.683Z,8.27
2017-11-24T03:10:02.121Z,9.63
2017-11-24T03:12:32.367Z,16.12
2017-11-24T03:15:06.665Z,6.70
2017-11-24T03:17:37.196Z,7.78
2017-11-24T03:20:06.958Z,9.85
2017-11-24T03:22:36.419Z,7.60
2017-11-24T03:25:06.852Z,8.80
2017-11-24T03:27:36.517Z,9.27
2017-11-24T03:30:06.201Z,7.45
2017-11-24T03:32:35.511Z,7.97
2017-11-24T03:35:04.811Z,8.90
2017-11-24T03:37:34.479Z,6.97
2017-11-24T03:40:04.161Z,6.60
2017-11-24T03:42:33.840Z,8.90
2017-11-24T03:45:03.491Z,11.07
2017-11-24T03:47:33.168Z,8.88
2017-11-24T03:50:02.809Z,13.98
2017-11-24T03:52:33.235Z,8.98
2017-11-24T03:55:03.360Z,9.90
2017-11-24T03:57:33.763Z,5.40
2017-11-24T04:00:03.437Z,8.73
2017-11-24T04:02:32.941Z,8.20
2017-11-24T04:05:02.608Z,6.87
2017-11-24T04:07:32.903Z,5.35
2017-11-24T04:10:02.585Z,10.48
2017-11-24T04:12:31.944Z,8.10
2017-11-24T04:15:01.568Z,8.68
2017-11-24T04:17:31.791Z,8.75
2017-11-24T04:20:01.382Z,7.28
2017-11-24T04:22:30.385Z,6.80
2017-11-24T04:25:00.285Z,9.80
2017-11-24T04:27:30.731Z,8.82
2017-11-24T04:30:00.396Z,7.22
2017-11-24T04:32:30.071Z,9.23
2017-11-24T04:34:59.705Z,8.45
2017-11-24T04:37:29.466Z,9.25
2017-11-24T04:39:59.883Z,10.30
2017-11-24T04:42:29.979Z,7.75
2017-11-24T04:44:59.280Z,7.18
2017-11-24T04:47:28.946Z,7.03
2017-11-24T04:49:58.616Z,9.32
2017-11-24T04:52:29.084Z,9.70
2017-11-24T04:54:58.719Z,11.60
2017-11-24T04:57:28.065Z,8.70
2017-11-24T04:59:57.884Z,11.50
2017-11-24T05:02:27.615Z,11.35
2017-11-24T05:04:57.243Z,10.95
2017-11-24T05:07:26.567Z,11.30
2017-11-24T05:09:59.641Z,12.10
2017-11-24T05:12:29.044Z,9.70
2017-11-24T05:14:58.522Z,10.05
2017-11-24T05:17:28.025Z,95.57
2017-11-24T05:19:59.766Z,68.97
2017-11-24T05:22:30.723Z,16.95
2017-11-24T05:25:00.186Z,10.25
2017-11-24T05:27:29.856Z,8.48
2017-11-24T05:29:59.501Z,8.32
2017-11-24T05:32:29.171Z,7.60
2017-11-24T05:34:58.823Z,8.75
2017-11-24T05:37:30.144Z,11.45
2017-11-24T05:39:59.768Z,8.63
2017-11-24T05:42:29.438Z,8.70
2017-11-24T05:44:59.062Z,7.80
2017-11-24T05:47:31.611Z,30.40
2017-11-24T05:50:01.258Z,8.55
2017-11-24T05:52:31.492Z,7.78
2017-11-24T05:55:01.149Z,7.68
2017-11-24T05:57:31.742Z,7.65
2017-11-24T06:00:01.234Z,10.63
2017-11-24T06:02:31.384Z,11.20
2017-11-24T06:05:00.390Z,13.10
2017-11-24T06:07:30.608Z,7.75
2017-11-24T06:10:00.272Z,7.90
2017-11-24T06:12:29.943Z,9.73
2017-11-24T06:15:00.355Z,9.50
2017-11-24T06:17:30.760Z,11.35
2017-11-24T06:20:00.223Z,9.90
2017-11-24T06:22:30.219Z,10.20
2017-11-24T06:25:00.104Z,9.73
2017-11-24T06:27:29.778Z,14.20
2017-11-24T06:29:59.428Z,10.35
2017-11-24T06:32:29.105Z,9.38
2017-11-24T06:34:58.921Z,27.17
2017-11-24T06:37:28.583Z,9.68
2017-11-24T06:39:58.307Z,11.00
2017-11-24T06:42:27.998Z,13.75
2017-11-24T06:44:57.673Z,10.60
2017-11-24T06:47:28.089Z,11.70
2017-11-24T06:49:58.580Z,14.68
2017-11-24T06:52:28.251Z,8.63
2017-11-24T06:54:58.662Z,13.75
2017-11-24T06:57:28.310Z,9.75
2017-11-24T06:59:57.959Z,9.63
2017-11-24T07:02:27.612Z,7.65
2017-11-24T07:04:57.828Z,7.85
2017-11-24T07:07:28.385Z,10.82
2017-11-24T07:09:58.072Z,8.38
2017-11-24T07:12:27.010Z,9.40
2017-11-24T07:14:56.354Z,15.30
2017-11-24T07:17:25.892Z,9.63
2017-11-24T07:19:55.343Z,11.02
2017-11-24T07:22:24.795Z,12.60
2017-11-24T07:24:54.124Z,11.43
2017-11-24T07:27:23.459Z,10.55
2017-11-24T07:29:53.130Z,9.35
2017-11-24T07:32:22.826Z,10.10
2017-11-24T07:34:52.508Z,11.63
2017-11-24T07:37:22.207Z,10.18
2017-11-24T07:39:52.473Z,11.40
2017-11-24T07:42:22.195Z,11.63
2017-11-24T07:44:51.847Z,13.65
2017-11-24T07:47:22.079Z,16.52
2017-11-24T07:49:52.536Z,9.40
2017-11-24T07:52:22.211Z,6.70
2017-11-24T07:54:52.219Z,7.97
2017-11-24T07:57:23.820Z,6.85
2017-11-24T07:59:53.548Z,8.93
2017-11-24T08:02:23.263Z,9.80
2017-11-24T08:04:52.746Z,8.32
2017-11-24T08:07:22.379Z,13.13
2017-11-24T08:09:52.068Z,11.73
2017-11-24T08:12:21.718Z,6.18
2017-11-24T08:14:51.396Z,13.40
2017-11-24T08:17:21.036Z,10.50
2017-11-24T08:19:50.718Z,7.00
2017-11-24T08:22:20.412Z,7.07
2017-11-24T08:24:49.750Z,7.62
2017-11-24T08:27:19.397Z,9.10
2017-11-24T08:29:49.821Z,9.05
2017-11-24T08:32:24.091Z,9.38
2017-11-24T08:34:53.776Z,11.43
2017-11-24T08:37:23.426Z,8.43
2017-11-24T08:39:53.113Z,10.90
2017-11-24T08:42:22.806Z,8.15
2017-11-24T08:44:52.430Z,9.77
2017-11-24T08:47:27.755Z,8.07
2017-11-24T08:49:57.831Z,10.45
2017-11-24T08:52:27.495Z,10.15
2017-11-24T08:54:57.204Z,12.13
2017-11-24T08:57:26.640Z,7.07
2017-11-24T08:59:56.337Z,7.40
2017-11-24T09:02:25.983Z,9.85
2017-11-24T09:04:56.443Z,7.05
2017-11-24T09:07:26.116Z,11.82
2017-11-24T09:09:55.775Z,6.87
2017-11-24T09:12:25.456Z,7.93
2017-11-24T09:14:55.917Z,6.30
2017-11-24T09:17:25.595Z,9.50
2017-11-24T09:19:56.026Z,8.93
2017-11-24T09:22:26.095Z,7.60
2017-11-24T09:24:55.776Z,9.88
2017-11-24T09:27:25.070Z,8.88
2017-11-24T09:29:54.741Z,6.65
2017-11-24T09:32:24.071Z,7.68
2017-11-24T09:34:53.716Z,6.75
2017-11-24T09:37:23.404Z,6.72
2017-11-24T09:39:53.042Z,6.72
2017-11-24T09:42:22.746Z,7.20
2017-11-24T09:44:52.380Z,9.68
2017-11-24T09:47:21.915Z,8.07
2017-11-24T09:49:52.333Z,5.93
2017-11-24T09:52:22.928Z,5.90
2017-11-24T09:54:52.602Z,6.15
2017-11-24T09:57:22.147Z,10.75
2017-11-24T09:59:51.929Z,7.57
2017-11-24T10:02:21.739Z,6.43
2017-11-24T10:04:51.391Z,10.60
2017-11-24T10:07:21.100Z,7.57
2017-11-24T10:09:51.391Z,8.40
2017-11-24T10:12:21.080Z,6.70
2017-11-24T10:14:50.835Z,8.65
2017-11-24T10:17:20.464Z,6.15
2017-11-24T10:19:50.142Z,4.80
2017-11-24T10:22:40.516Z,6.00
2017-11-24T10:25:10.022Z,7.80
2017-11-24T10:27:39.684Z,6.62
2017-11-24T10:30:09.380Z,6.97
2017-11-24T10:32:39.053Z,4.57
2017-11-24T10:35:08.732Z,5.53
2017-11-24T10:37:39.152Z,6.43
2017-11-24T10:40:09.595Z,6.30
2017-11-24T10:42:39.329Z,4.40
2017-11-24T10:45:09.008Z,5.43
2017-11-24T10:47:39.404Z,5.20
2017-11-24T10:50:08.892Z,6.00
2017-11-24T10:52:38.610Z,7.90
2017-11-24T10:55:08.261Z,6.35
2017-11-24T10:57:37.951Z,5.32
2017-11-24T11:00:07.588Z,5.22
2017-11-24T11:02:36.619Z,7.73
2017-11-24T11:05:06.394Z,6.57
2017-11-24T11:07:36.049Z,6.97
2017-11-24T11:10:05.732Z,4.80
2017-11-24T11:12:35.241Z,10.25
2017-11-24T11:15:04.877Z,4.85
2017-11-24T11:17:34.583Z,8.05
2017-11-24T11:20:04.292Z,5.68
2017-11-24T11:22:34.033Z,5.15
2017-11-24T11:25:04.464Z,7.28
2017-11-24T11:27:34.959Z,6.40
2017-11-24T11:30:04.283Z,4.10
2017-11-24T11:32:33.927Z,6.87
2017-11-24T11:35:03.872Z,6.90
2017-11-24T11:37:33.533Z,6.30
2017-11-24T11:40:03.539Z,6.62
2017-11-24T11:42:33.172Z,10.30
2017-11-24T11:45:02.960Z,9.45
2017-11-24T11:47:32.610Z,5.95
2017-11-24T11:50:02.019Z,6.87
2017-11-24T11:52:31.765Z,5.57
2017-11-24T11:55:01.462Z,5.10
2017-11-24T11:57:31.157Z,5.53
2017-11-24T12:00:00.855Z,7.18
2017-11-24T12:02:29.785Z,7.75
2017-11-24T12:04:59.248Z,5.65
2017-11-24T12:07:28.752Z,6.97
2017-11-24T12:09:58.207Z,6.10
2017-11-24T12:12:27.905Z,5.97
2017-11-24T12:14:57.550Z,7.87
2017-11-24T12:17:27.856Z,11.05
2017-11-24T12:19:57.646Z,6.90
2017-11-24T12:22:27.283Z,8.30
2017-11-24T12:24:57.735Z,8.55
2017-11-24T12:27:28.151Z,13.10
2017-11-24T12:29:58.474Z,9.60
2017-11-24T12:32:28.891Z,6.25
2017-11-24T12:34:58.140Z,8.57
2017-11-24T12:37:27.778Z,8.68
2017-11-24T12:39:57.096Z,9.35
2017-11-24T12:42:26.782Z,5.32
2017-11-24T12:44:56.432Z,7.62
2017-11-24T12:47:27.010Z,6.70
2017-11-24T12:49:56.656Z,7.78
2017-11-24T12:52:26.307Z,9.65
2017-11-24T12:54:55.956Z,6.22
2017-11-24T12:57:25.634Z,5.78
2017-11-24T12:59:55.426Z,6.55
2017-11-24T13:02:25.400Z,6.97
2017-11-24T13:04:55.862Z,9.57
2017-11-24T13:07:26.293Z,8.25
2017-11-24T13:09:55.775Z,24.75
2017-11-24T13:12:25.411Z,8.93
2017-11-24T13:14:54.915Z,17.65
2017-11-24T13:17:24.611Z,9.10
2017-11-24T13:19:54.284Z,9.98
2017-11-24T13:22:23.945Z,9.18
2017-11-24T13:24:54.375Z,3.90
2017-11-24T13:27:24.048Z,5.10
2017-11-24T13:29:53.742Z,20.40
2017-11-24T13:32:23.377Z,8.68
2017-11-24T13:34:53.064Z,6.75
2017-11-24T13:37:22.723Z,5.82
2017-11-24T13:39:52.427Z,3.17
2017-11-24T13:42:22.818Z,2.10
2017-11-24T13:44:52.490Z,3.75
2017-11-24T13:47:22.215Z,5.55
2017-11-24T13:49:51.890Z,5.45
2017-11-24T13:52:22.315Z,3.25
2017-11-24T13:54:52.798Z,3.30
2017-11-24T13:57:22.683Z,2.60
2017-11-24T13:59:52.369Z,3.08
2017-11-24T14:02:22.826Z,4.15
2017-11-24T14:04:52.472Z,4.18
2017-11-24T14:07:22.174Z,4.78
2017-11-24T14:09:51.908Z,3.30
2017-11-24T14:12:21.584Z,3.78
2017-11-24T14:14:51.270Z,3.75
2017-11-24T14:17:20.903Z,3.80
2017-11-24T14:19:50.640Z,4.65
2017-11-24T14:22:20.308Z,4.70
2017-11-24T14:24:50.419Z,7.10
2017-11-24T14:27:20.230Z,3.87
2017-11-24T14:29:50.155Z,5.72
2017-11-24T14:32:19.891Z,5.50
2017-11-24T14:34:49.771Z,6.00
2017-11-24T14:37:19.485Z,3.50
2017-11-24T14:39:49.883Z,5.87
2017-11-24T14:42:19.563Z,9.15
2017-11-24T14:44:49.225Z,4.93
2017-11-24T14:47:18.893Z,8.48
2017-11-24T14:49:48.545Z,11.15
2017-11-24T14:52:18.983Z,16.10
2017-11-24T14:54:49.418Z,11.75
2017-11-24T14:57:19.108Z,10.85
2017-11-24T14:59:49.503Z,9.57
2017-11-24T15:02:19.189Z,16.80
2017-11-24T15:04:48.828Z,10.45
2017-11-24T15:07:18.537Z,10.80
2017-11-24T15:09:48.187Z,11.23
2017-11-24T15:12:18.751Z,14.15
2017-11-24T15:14:48.398Z,8.38
2017-11-24T15:17:18.071Z,7.80
2017-11-24T15:19:47.709Z,10.65
2017-11-24T15:22:17.364Z,7.75
2017-11-24T15:24:47.056Z,11.35
2017-11-24T15:27:17.480Z,11.50
2017-11-24T15:29:48.052Z,11.02
2017-11-24T15:32:17.723Z,8.27
2017-11-24T15:34:48.149Z,14.30
2017-11-24T15:37:18.570Z,12.32
2017-11-24T15:39:49.028Z,15.40
2017-11-24T15:42:18.685Z,21.60
2017-11-24T15:44:48.363Z,11.93
2017-11-24T15:47:18.049Z,12.35
2017-11-24T15:49:48.480Z,8.43
2017-11-24T15:52:18.903Z,15.07
2017-11-24T15:54:48.008Z,9.35
2017-11-24T15:57:17.372Z,12.63
2017-11-24T15:59:47.027Z,11.12
2017-11-24T16:02:16.705Z,13.10
2017-11-24T16:04:46.350Z,14.98
2017-11-24T16:07:16.047Z,12.05
2017-11-24T16:09:46.458Z,12.13
2017-11-24T16:12:16.124Z,9.20
2017-11-24T16:14:45.781Z,11.15
2017-11-24T16:17:15.493Z,16.12
2017-11-24T16:19:45.330Z,13.93
2017-11-24T16:22:14.813Z,16.23
2017-11-24T16:24:44.484Z,12.88
2017-11-24T16:27:14.883Z,14.05
2017-11-24T16:29:44.583Z,13.88
2017-11-24T16:32:14.239Z,14.00
2017-11-24T16:34:43.882Z,8.98
2017-11-24T16:37:13.291Z,14.13
2017-11-24T16:39:42.968Z,7.35
2017-11-24T16:42:13.366Z,14.20
2017-11-24T16:44:42.736Z,14.98
2017-11-24T16:47:12.356Z,9.55
2017-11-24T16:49:42.061Z,10.82
2017-11-24T16:52:11.717Z,10.73
2017-11-24T16:54:41.522Z,10.00
2017-11-24T16:57:11.158Z,9.35
2017-11-24T16:59:40.832Z,8.85
2017-11-24T17:02:11.057Z,10.48
2017-11-24T17:04:40.736Z,15.00
2017-11-24T17:07:10.393Z,10.40
2017-11-24T17:09:40.970Z,13.35
2017-11-24T17:12:10.643Z,9.10
2017-11-24T17:14:41.074Z,15.00
2017-11-24T17:17:11.832Z,14.23
2017-11-24T17:19:42.955Z,12.68
2017-11-24T17:22:12.644Z,11.18
2017-11-24T17:24:43.132Z,9.10
2017-11-24T17:27:12.506Z,12.93
2017-11-24T17:29:42.145Z,13.20
2017-11-24T17:32:11.452Z,9.90
2017-11-24T17:34:41.137Z,11.93
2017-11-24T17:37:10.814Z,12.85
2017-11-24T17:39:41.129Z,9.82
2017-11-24T17:42:11.557Z,12.65
2017-11-24T17:44:41.286Z,10.20
2017-11-24T17:47:11.724Z,11.30
2017-11-24T17:49:41.575Z,15.15
2017-11-24T17:52:11.225Z,12.27
2017-11-24T17:54:41.352Z,13.80
2017-11-24T17:57:11.768Z,11.02
2017-11-24T17:59:42.222Z,14.50
2017-11-24T18:02:11.880Z,10.75
2017-11-24T18:04:41.594Z,13.20
2017-11-24T18:07:11.223Z,11.27
2017-11-24T18:09:40.683Z,7.93
2017-11-24T18:12:10.379Z,13.60
2017-11-24T18:14:40.276Z,10.07
2017-11-24T18:17:10.006Z,28.62
2017-11-24T18:19:39.785Z,12.35
2017-11-24T18:22:10.289Z,12.98
2017-11-24T18:24:39.989Z,11.70
2017-11-24T18:27:10.625Z,12.95
2017-11-24T18:29:40.310Z,10.65
2017-11-24T18:32:10.261Z,11.10
2017-11-24T18:34:39.728Z,12.35
2017-11-24T18:37:09.408Z,13.85
2017-11-24T18:39:39.067Z,12.02
2017-11-24T18:42:08.560Z,12.18
2017-11-24T18:44:38.332Z,15.40
2017-11-24T18:47:07.511Z,15.32
2017-11-24T18:49:38.103Z,13.38
2017-11-24T18:52:07.814Z,15.32
2017-11-24T18:54:37.498Z,17.50
2017-11-24T18:57:07.188Z,20.60
2017-11-24T18:59:36.884Z,15.50
2017-11-24T19:02:07.316Z,19.15
2017-11-24T19:04:37.053Z,18.45
2017-11-24T19:07:06.996Z,16.33
2017-11-24T19:09:36.788Z,16.70
2017-11-24T19:12:06.906Z,14.20
2017-11-24T19:14:36.679Z,11.18
2017-11-24T19:17:07.135Z,16.37
2017-11-24T19:19:36.784Z,16.80
2017-11-24T19:22:06.092Z,15.20
2017-11-24T19:24:35.771Z,16.87
2017-11-24T19:27:04.942Z,17.00
2017-11-24T19:29:34.593Z,17.27
2017-11-24T19:32:03.624Z,19.17
2017-11-24T19:34:34.036Z,14.70
2017-11-24T19:37:03.061Z,16.20
2017-11-24T19:39:32.736Z,16.83
2017-11-24T19:42:02.434Z,37.90
2017-11-24T19:44:32.102Z,59.63
2017-11-24T19:47:01.811Z,20.20
2017-11-24T19:49:31.130Z,17.67
2017-11-24T19:52:00.771Z,17.00
2017-11-24T19:54:30.482Z,18.62
2017-11-24T19:57:00.123Z,19.17
2017-11-24T19:59:29.799Z,23.30
2017-11-24T20:01:59.450Z,20.50
2017-11-24T20:04:29.166Z,21.45
2017-11-24T20:06:58.831Z,21.42
2017-11-24T20:09:28.529Z,19.95
2017-11-24T20:11:57.587Z,22.17
2017-11-24T20:14:27.047Z,22.55
2017-11-24T20:16:56.738Z,24.45
2017-11-24T20:19:26.370Z,27.10
2017-11-24T20:21:56.053Z,24.08
2017-11-24T20:24:25.518Z,25.58
2017-11-24T20:26:55.206Z,22.77
2017-11-24T20:29:25.633Z,24.42
2017-11-24T20:31:55.309Z,26.08
2017-11-24T20:34:25.052Z,22.80
2017-11-24T20:36:55.479Z,24.80
2017-11-24T20:39:25.936Z,22.60
2017-11-24T20:41:55.582Z,28.98
2017-11-24T20:44:25.272Z,26.92
2017-11-24T20:46:54.903Z,28.20
2017-11-24T20:49:24.563Z,24.27
2017-11-24T20:51:54.210Z,27.77
2017-11-24T20:54:24.317Z,26.90
2017-11-24T20:56:53.959Z,30.25
2017-11-24T20:59:23.632Z,30.40
2017-11-24T21:01:53.332Z,31.50
2017-11-24T21:04:22.804Z,27.25
2017-11-24T21:06:53.103Z,30.45
2017-11-24T21:09:22.858Z,29.98
2017-11-24T21:11:52.320Z,32.90
2017-11-24T21:14:22.011Z,29.30
2017-11-24T21:16:51.656Z,54.35
2017-11-24T21:19:22.152Z,37.88
2017-11-24T21:21:51.824Z,33.15
2017-11-24T21:24:21.517Z,32.58
2017-11-24T21:26:51.935Z,30.08
2017-11-24T21:29:22.406Z,38.08
2017-11-24T21:31:52.036Z,43.75
2017-11-24T21:34:21.746Z,35.28
2017-11-24T21:36:51.407Z,37.33
2017-11-24T21:39:21.080Z,37.05
2017-11-24T21:41:51.220Z,31.73
2017-11-24T21:44:21.631Z,32.15
2017-11-24T21:46:51.323Z,33.05
2017-11-24T21:49:20.972Z,32.00
2017-11-24T21:51:51.435Z,37.17
2017-11-24T21:54:21.691Z,35.20
2017-11-24T21:56:51.565Z,39.47
2017-11-24T21:59:21.066Z,32.47
2017-11-24T22:01:50.982Z,35.92
2017-11-24T22:04:20.667Z,33.97
2017-11-24T22:06:51.419Z,34.63
2017-11-24T22:09:20.881Z,34.50
2017-11-24T22:11:50.560Z,33.50
2017-11-24T22:14:20.204Z,33.13
2017-11-24T22:16:50.671Z,33.22
2017-11-24T22:19:21.096Z,31.10
2017-11-24T22:21:50.796Z,34.67
2017-11-24T22:24:21.243Z,32.00
2017-11-24T22:26:50.916Z,38.58
2017-11-24T22:29:20.408Z,35.63
2017-11-24T22:31:49.880Z,37.08
2017-11-24T22:34:19.336Z,33.20
2017-11-24T22:36:48.843Z,29.60
2017-11-24T22:39:19.067Z,31.50
2017-11-24T22:41:49.539Z,32.88
2017-11-24T22:44:19.097Z,32.15
2017-11-24T22:46:48.803Z,38.63
2017-11-24T22:49:18.464Z,39.13
2017-11-24T22:51:48.139Z,38.35
2017-11-24T22:54:18.737Z,41.83
2017-11-24T22:56:48.396Z,37.85
2017-11-24T22:59:18.087Z,36.78
2017-11-24T23:01:48.521Z,38.83
2017-11-24T23:04:18.978Z,37.67
2017-11-24T23:06:48.622Z,34.70
2017-11-24T23:09:18.315Z,41.75
2017-11-24T23:11:47.632Z,32.55
2017-11-24T23:14:17.087Z,35.85
2017-11-24T23:16:46.571Z,40.78
2017-11-24T23:19:16.287Z,38.45
2017-11-24T23:21:46.770Z,36.05
2017-11-24T23:24:16.464Z,34.78
2017-11-24T23:26:46.143Z,37.88
2017-11-24T23:29:16.550Z,32.47
2017-11-24T23:31:47.030Z,33.83
2017-11-24T23:34:16.694Z,34.33
2017-11-24T23:36:47.155Z,37.15
2017-11-24T23:39:16.810Z,32.22
2017-11-24T23:41:46.528Z,33.05
2017-11-24T23:44:16.198Z,37.60
2017-11-24T23:46:45.890Z,36.20
2017-11-24T23:49:15.555Z,38.08
2017-11-24T23:51:45.222Z,35.63
2017-11-24T23:54:14.910Z,34.22
2017-11-24T23:56:44.563Z,33.38
2017-11-24T23:59:14.242Z,29.23
